createdAt,value
2018-09-23T00:00:20.422Z,100589.02
2018-09-23T00:02:48.903Z,100584.81
2018-09-23T00:05:17.468Z,100576.16
2018-09-23T00:07:46.338Z,100576.59
2018-09-23T00:10:14.775Z,100569.38
2018-09-23T00:12:43.246Z,100562.62
2018-09-23T00:15:11.742Z,100570.19
2018-09-23T00:17:40.646Z,100565.97
2018-09-23T00:20:09.192Z,100559.58
2018-09-23T00:22:37.920Z,100561.70
2018-09-23T00:25:07.099Z,100569.36
2018-09-23T00:27:35.718Z,100568.98
2018-09-23T00:30:04.599Z,100558.77
2018-09-23T00:32:33.084Z,100551.06
2018-09-23T00:35:01.765Z,100541.14
2018-09-23T00:37:30.229Z,100538.59
2018-09-23T00:39:58.706Z,100534.71
2018-09-23T00:42:27.973Z,100539.88
2018-09-23T00:44:56.374Z,100536.09
2018-09-23T00:47:24.911Z,100529.72
2018-09-23T00:49:53.351Z,100528.97
2018-09-23T00:52:22.082Z,100525.02
2018-09-23T00:54:50.515Z,100519.45
2018-09-23T00:57:19.326Z,100530.98
2018-09-23T00:59:47.748Z,100532.27
2018-09-23T01:02:16.200Z,100529.80
2018-09-23T01:04:45.063Z,100522.91
2018-09-23T01:07:13.914Z,100523.85
2018-09-23T01:09:42.383Z,100527.23
2018-09-23T01:12:10.925Z,100526.75
2018-09-23T01:14:39.426Z,100529.39
2018-09-23T01:17:07.874Z,100542.13
2018-09-23T01:19:36.270Z,100536.19
2018-09-23T01:22:04.815Z,100524.14
2018-09-23T01:24:33.305Z,100530.51
2018-09-23T01:27:02.083Z,100526.31
2018-09-23T01:29:30.553Z,100517.73
2018-09-23T01:32:00.078Z,100511.78
2018-09-23T01:34:28.687Z,100509.59
2018-09-23T01:36:57.139Z,100513.83
2018-09-23T01:39:26.243Z,100516.75
2018-09-23T01:41:54.631Z,100515.47
2018-09-23T01:44:23.522Z,100506.95
2018-09-23T01:46:52.058Z,100506.69
2018-09-23T01:49:20.516Z,100507.86
2018-09-23T01:51:48.893Z,100505.33
2018-09-23T01:54:17.345Z,100498.81
2018-09-23T01:56:45.797Z,100507.77
2018-09-23T01:59:14.204Z,100504.38
2018-09-23T02:01:42.776Z,100500.94
2018-09-23T02:04:11.231Z,100497.53
2018-09-23T02:06:39.684Z,100486.94
2018-09-23T02:09:08.813Z,100480.54
2018-09-23T02:11:37.231Z,100480.52
2018-09-23T02:14:05.794Z,100483.02
2018-09-23T02:16:34.281Z,100477.50
2018-09-23T02:19:02.763Z,100475.30
2018-09-23T02:21:31.303Z,100473.66
2018-09-23T02:23:59.922Z,100472.31
2018-09-23T02:26:28.426Z,100469.67
2018-09-23T02:28:57.022Z,100472.28
2018-09-23T02:31:25.567Z,100469.36
2018-09-23T02:33:57.246Z,100470.18
2018-09-23T02:36:26.226Z,100466.80
2018-09-23T02:38:54.753Z,100457.78
2018-09-23T02:41:23.379Z,100448.38
2018-09-23T02:43:51.804Z,100451.27
2018-09-23T02:46:20.238Z,100449.17
2018-09-23T02:48:48.813Z,100440.66
2018-09-23T02:51:17.327Z,100442.42
2018-09-23T02:53:45.807Z,100439.02
2018-09-23T02:56:14.809Z,100436.44
2018-09-23T02:58:43.199Z,100438.22
2018-09-23T03:01:11.667Z,100445.44
2018-09-23T03:03:40.766Z,100454.02
2018-09-23T03:06:09.243Z,100448.53
2018-09-23T03:08:37.726Z,100446.42
2018-09-23T03:11:06.116Z,100437.41
2018-09-23T03:13:34.650Z,100420.77
2018-09-23T03:16:03.158Z,100424.13
2018-09-23T03:18:31.542Z,100418.98
2018-09-23T03:21:00.462Z,100423.23
2018-09-23T03:23:28.961Z,100417.27
2018-09-23T03:25:57.437Z,100419.38
2018-09-23T03:28:26.038Z,100417.24
2018-09-23T03:30:54.539Z,100413.80
2018-09-23T03:33:22.992Z,100404.84
2018-09-23T03:35:51.859Z,100407.41
2018-09-23T03:38:20.389Z,100399.72
2018-09-23T03:40:48.770Z,100400.96
2018-09-23T03:43:17.329Z,100397.95
2018-09-23T03:45:45.843Z,100394.95
2018-09-23T03:48:14.245Z,100388.16
2018-09-23T03:50:42.651Z,100384.32
2018-09-23T03:53:11.095Z,100379.97
2018-09-23T03:55:39.682Z,100375.22
2018-09-23T03:58:08.921Z,100382.48
2018-09-23T04:00:37.580Z,100377.36
2018-09-23T04:03:06.408Z,100371.81
2018-09-23T04:05:34.987Z,100368.87
2018-09-23T04:08:03.444Z,100373.08
2018-09-23T04:10:31.998Z,100380.31
2018-09-23T04:13:00.479Z,100368.80
2018-09-23T04:15:29.546Z,100363.19
2018-09-23T04:17:57.960Z,100361.00
2018-09-23T04:20:26.535Z,100358.92
2018-09-23T04:22:55.185Z,100357.60
2018-09-23T04:25:23.618Z,100352.85
2018-09-23T04:27:52.133Z,100350.73
2018-09-23T04:30:21.776Z,100355.39
2018-09-23T04:32:51.027Z,100358.44
2018-09-23T04:35:19.868Z,100355.80
2018-09-23T04:37:48.834Z,100357.08
2018-09-23T04:40:17.349Z,100350.66
2018-09-23T04:42:45.775Z,100343.52
2018-09-23T04:45:14.237Z,100348.17
2018-09-23T04:47:42.701Z,100341.00
2018-09-23T04:50:11.450Z,100344.84
2018-09-23T04:52:39.983Z,100326.09
2018-09-23T04:55:08.476Z,100317.84
2018-09-23T04:57:36.954Z,100309.77
2018-09-23T05:00:05.496Z,100305.48
2018-09-23T05:02:34.266Z,100292.67
2018-09-23T05:05:02.795Z,100286.25
2018-09-23T05:07:31.386Z,100283.73
2018-09-23T05:09:59.940Z,100282.22
2018-09-23T05:12:28.491Z,100292.43
2018-09-23T05:14:57.317Z,100292.06
2018-09-23T05:17:25.779Z,100293.69
2018-09-23T05:19:54.748Z,100281.13
2018-09-23T05:22:23.251Z,100281.70
2018-09-23T05:24:52.319Z,100298.75
2018-09-23T05:27:20.767Z,100313.19
2018-09-23T05:29:49.241Z,100331.11
2018-09-23T05:32:17.741Z,100335.31
2018-09-23T05:34:46.232Z,100324.66
2018-09-23T05:37:14.676Z,100315.28
2018-09-23T05:39:43.091Z,100307.70
2018-09-23T05:42:11.643Z,100304.34
2018-09-23T05:44:40.092Z,100302.55
2018-09-23T05:47:08.580Z,100300.80
2018-09-23T05:49:37.113Z,100291.81
2018-09-23T05:52:06.207Z,100293.37
2018-09-23T05:54:34.623Z,100294.77
2018-09-23T05:57:03.030Z,100287.41
2018-09-23T05:59:31.731Z,100279.29
2018-09-23T06:02:00.286Z,100279.29
2018-09-23T06:04:28.863Z,100278.70
2018-09-23T06:06:58.048Z,100275.32
2018-09-23T06:09:26.998Z,100279.09
2018-09-23T06:11:55.629Z,100276.60
2018-09-23T06:14:24.241Z,100271.38
2018-09-23T06:16:52.639Z,100272.27
2018-09-23T06:19:21.189Z,100257.64
2018-09-23T06:21:49.706Z,100251.73
2018-09-23T06:24:18.745Z,100246.25
2018-09-23T06:26:47.137Z,100255.55
2018-09-23T06:29:15.820Z,100270.00
2018-09-23T06:31:48.990Z,100269.02
2018-09-23T06:34:21.118Z,100271.57
2018-09-23T06:36:49.826Z,100280.45
2018-09-23T06:39:20.889Z,100272.35
2018-09-23T06:41:49.607Z,100261.92
2018-09-23T06:44:18.275Z,100256.38
2018-09-23T06:46:46.822Z,100264.77
2018-09-23T06:49:15.311Z,100260.79
2018-09-23T06:51:44.906Z,100259.15
2018-09-23T06:54:14.357Z,100263.33
2018-09-23T06:56:43.126Z,100263.57
2018-09-23T06:59:11.699Z,100263.48
2018-09-23T07:01:40.332Z,100262.65
2018-09-23T07:04:09.866Z,100262.73
2018-09-23T07:06:38.385Z,100262.29
2018-09-23T07:09:07.740Z,100264.02
2018-09-23T07:11:36.322Z,100263.18
2018-09-23T07:14:04.798Z,100256.33
2018-09-23T07:16:33.739Z,100248.17
2018-09-23T07:19:02.353Z,100241.34
2018-09-23T07:21:30.892Z,100236.81
2018-09-23T07:23:59.527Z,100234.05
2018-09-23T07:26:27.939Z,100241.13
2018-09-23T07:28:56.529Z,100244.38
2018-09-23T07:31:25.296Z,100242.34
2018-09-23T07:33:54.067Z,100232.69
2018-09-23T07:36:23.110Z,100251.07
2018-09-23T07:38:51.808Z,100251.86
2018-09-23T07:41:20.517Z,100259.91
2018-09-23T07:43:49.331Z,100259.81
2018-09-23T07:46:17.820Z,100262.18
2018-09-23T07:48:46.352Z,100262.56
2018-09-23T07:51:14.977Z,100261.64
2018-09-23T07:53:44.561Z,100267.00
2018-09-23T07:56:13.800Z,100258.34
2018-09-23T07:58:44.244Z,100252.52
2018-09-23T08:01:13.424Z,100234.48
2018-09-23T08:03:42.331Z,100226.56
2018-09-23T08:06:11.304Z,100227.61
2018-09-23T08:08:40.280Z,100207.81
2018-09-23T08:11:10.007Z,100202.53
2018-09-23T08:13:38.807Z,100191.95
2018-09-23T08:16:07.489Z,100180.62
2018-09-23T08:18:36.176Z,100197.28
2018-09-23T08:21:04.794Z,100199.05
2018-09-23T08:23:34.115Z,100206.32
2018-09-23T08:26:02.725Z,100207.19
2018-09-23T08:28:31.259Z,100202.53
2018-09-23T08:30:59.725Z,100194.94
2018-09-23T08:33:28.958Z,100188.11
2018-09-23T08:35:57.689Z,100191.89
2018-09-23T08:38:26.951Z,100188.17
2018-09-23T08:40:56.496Z,100182.83
2018-09-23T08:43:26.339Z,100180.27
2018-09-23T08:45:55.816Z,100178.12
2018-09-23T08:48:25.458Z,100198.23
2018-09-23T08:50:54.694Z,100188.19
2018-09-23T08:53:24.145Z,100179.66
2018-09-23T08:55:53.143Z,100165.50
2018-09-23T08:58:22.224Z,100158.19
2018-09-23T09:00:51.262Z,100162.36
2018-09-23T09:03:20.932Z,100171.88
2018-09-23T09:05:50.721Z,100174.59
2018-09-23T09:08:19.823Z,100172.52
2018-09-23T09:10:49.009Z,100168.95
2018-09-23T09:13:18.207Z,100158.28
2018-09-23T09:15:48.658Z,100153.53
2018-09-23T09:18:18.195Z,100126.98
2018-09-23T09:20:47.180Z,100121.73
2018-09-23T09:23:16.549Z,100126.47
2018-09-23T09:25:46.290Z,100115.97
2018-09-23T09:28:15.257Z,100108.73
2018-09-23T09:30:44.491Z,100114.14
2018-09-23T09:33:13.687Z,100109.08
2018-09-23T09:35:42.971Z,100100.86
2018-09-23T09:38:11.942Z,100111.47
2018-09-23T09:40:41.542Z,100098.08
2018-09-23T09:43:10.648Z,100088.59
2018-09-23T09:45:39.766Z,100095.41
2018-09-23T09:48:11.631Z,100092.64
2018-09-23T09:50:41.311Z,100084.19
2018-09-23T09:53:10.909Z,100079.22
2018-09-23T09:55:40.296Z,100074.58
2018-09-23T09:58:09.896Z,100066.43
2018-09-23T10:00:38.825Z,100063.23
2018-09-23T10:03:08.753Z,100064.52
2018-09-23T10:05:38.027Z,100062.20
2018-09-23T10:08:07.213Z,100056.96
2018-09-23T10:10:36.024Z,100057.41
2018-09-23T10:13:05.394Z,100049.20
2018-09-23T10:15:34.635Z,100033.34
2018-09-23T10:18:03.784Z,100029.57
2018-09-23T10:20:33.258Z,100024.33
2018-09-23T10:23:02.996Z,100018.62
2018-09-23T10:25:33.507Z,100017.53
2018-09-23T10:28:02.331Z,100012.22
2018-09-23T10:30:31.599Z,100016.89
2018-09-23T10:33:00.399Z,99998.20
2018-09-23T10:35:29.272Z,99998.41
2018-09-23T10:37:57.982Z,99991.61
2018-09-23T10:40:27.045Z,99986.52
2018-09-23T10:42:55.941Z,99987.49
2018-09-23T10:45:24.758Z,99981.42
2018-09-23T10:47:53.878Z,99978.22
2018-09-23T10:50:23.253Z,99974.67
2018-09-23T10:52:52.933Z,99975.45
2018-09-23T10:55:21.841Z,99975.27
2018-09-23T10:57:50.711Z,99971.45
2018-09-23T11:00:19.873Z,99972.81
2018-09-23T11:02:49.526Z,99966.51
2018-09-23T11:05:19.151Z,99959.11
2018-09-23T11:07:48.525Z,99950.27
2018-09-23T11:10:17.610Z,99943.89
2018-09-23T11:12:46.333Z,99940.57
2018-09-23T11:15:15.402Z,99926.92
2018-09-23T11:17:44.031Z,99924.02
2018-09-23T11:20:12.670Z,99931.29
2018-09-23T11:22:43.314Z,99939.78
2018-09-23T11:25:12.243Z,99941.06
2018-09-23T11:27:41.498Z,99929.39
2018-09-23T11:30:10.182Z,99921.32
2018-09-23T11:32:39.108Z,99906.78
2018-09-23T11:35:08.235Z,99904.53
2018-09-23T11:37:37.342Z,99903.91
2018-09-23T11:40:06.522Z,99906.75
2018-09-23T11:42:35.285Z,99915.36
2018-09-23T11:45:04.247Z,99904.70
2018-09-23T11:47:33.324Z,99897.88
2018-09-23T11:50:02.328Z,99898.27
2018-09-23T11:52:31.301Z,99908.03
2018-09-23T11:55:00.101Z,99905.85
2018-09-23T11:57:29.101Z,99899.23
2018-09-23T11:59:57.987Z,99893.25
2018-09-23T12:02:27.119Z,99889.70
2018-09-23T12:04:56.381Z,99884.45
2018-09-23T12:07:25.379Z,99879.08
2018-09-23T12:09:54.251Z,99880.32
2018-09-23T12:12:22.888Z,99883.61
2018-09-23T12:14:52.443Z,99892.99
2018-09-23T12:17:22.672Z,99897.43
2018-09-23T12:19:51.655Z,99898.97
2018-09-23T12:22:20.761Z,99888.33
2018-09-23T12:24:49.950Z,99874.31
2018-09-23T12:27:19.929Z,99862.61
2018-09-23T12:29:51.421Z,99857.39
2018-09-23T12:32:21.958Z,99836.28
2018-09-23T12:34:50.971Z,99828.77
2018-09-23T12:37:21.096Z,99832.51
2018-09-23T12:39:50.403Z,99834.20
2018-09-23T12:42:26.197Z,99817.63
2018-09-23T12:44:56.842Z,99820.61
2018-09-23T12:47:25.928Z,99807.81
2018-09-23T12:49:55.227Z,99783.44
2018-09-23T12:52:24.647Z,99773.05
2018-09-23T12:54:53.713Z,99742.07
2018-09-23T12:57:22.665Z,99709.43
2018-09-23T12:59:51.957Z,99691.70
2018-09-23T13:02:21.641Z,99688.72
2018-09-23T13:04:51.445Z,99676.45
2018-09-23T13:07:21.854Z,99660.30
2018-09-23T13:09:51.695Z,99650.45
2018-09-23T13:12:20.299Z,99648.00
2018-09-23T13:14:49.090Z,99648.39
2018-09-23T13:17:17.913Z,99641.99
2018-09-23T13:19:46.823Z,99636.45
2018-09-23T13:22:15.907Z,99638.05
2018-09-23T13:24:44.606Z,99662.34
2018-09-23T13:27:13.903Z,99683.95
2018-09-23T13:29:43.703Z,99682.67
2018-09-23T13:32:13.049Z,99690.66
2018-09-23T13:34:41.943Z,99685.05
2018-09-23T13:37:10.773Z,99692.66
2018-09-23T13:39:39.819Z,99692.73
2018-09-23T13:42:08.846Z,99683.60
2018-09-23T13:44:37.810Z,99667.05
2018-09-23T13:47:07.705Z,99651.69
2018-09-23T13:49:37.011Z,99632.61
2018-09-23T13:52:06.051Z,99613.02
2018-09-23T13:54:35.353Z,99637.42
2018-09-23T13:57:04.762Z,99654.43
2018-09-23T13:59:33.775Z,99631.06
2018-09-23T14:02:02.654Z,99654.61
2018-09-23T14:04:32.551Z,99669.95
2018-09-23T14:07:02.061Z,99662.77
2018-09-23T14:09:31.563Z,99691.14
2018-09-23T14:12:00.746Z,99706.20
2018-09-23T14:14:29.765Z,99693.87
2018-09-23T14:16:58.782Z,99673.09
2018-09-23T14:19:27.772Z,99677.86
2018-09-23T14:21:57.967Z,99679.88
2018-09-23T14:24:28.128Z,99651.25
2018-09-23T14:26:57.014Z,99643.27
2018-09-23T14:29:26.176Z,99618.32
2018-09-23T14:31:55.672Z,99641.34
2018-09-23T14:34:24.297Z,99671.19
2018-09-23T14:36:53.270Z,99700.57
2018-09-23T14:39:22.661Z,99726.66
2018-09-23T14:41:51.403Z,99727.07
2018-09-23T14:44:20.740Z,99699.25
2018-09-23T14:46:49.346Z,99656.16
2018-09-23T14:49:18.825Z,99655.78
2018-09-23T14:51:48.015Z,99651.08
2018-09-23T14:54:18.013Z,99664.52
2018-09-23T14:56:47.850Z,99667.95
2018-09-23T14:59:18.051Z,99664.17
2018-09-23T15:01:47.573Z,99667.67
2018-09-23T15:04:17.558Z,99680.55
2018-09-23T15:06:47.199Z,99675.03
2018-09-23T15:09:15.708Z,99657.09
2018-09-23T15:11:45.115Z,99634.59
2018-09-23T15:14:14.541Z,99611.13
2018-09-23T15:16:43.746Z,99627.33
2018-09-23T15:19:12.455Z,99626.89
2018-09-23T15:21:41.545Z,99630.34
2018-09-23T15:24:10.274Z,99626.58
2018-09-23T15:26:38.832Z,99620.67
2018-09-23T15:29:07.899Z,99613.97
2018-09-23T15:31:36.408Z,99604.64
2018-09-23T15:34:04.929Z,99589.33
2018-09-23T15:36:33.540Z,99580.80
2018-09-23T15:39:02.088Z,99582.87
2018-09-23T15:41:30.524Z,99574.55
2018-09-23T15:43:59.500Z,99573.75
2018-09-23T15:46:28.254Z,99577.03
2018-09-23T15:48:56.795Z,99577.86
2018-09-23T15:51:25.448Z,99605.98
2018-09-23T15:53:54.251Z,99623.19
2018-09-23T15:56:23.100Z,99623.19
2018-09-23T15:58:51.858Z,99642.46
2018-09-23T16:01:20.808Z,99642.63
2018-09-23T16:03:49.400Z,99665.95
2018-09-23T16:06:18.847Z,99658.98
2018-09-23T16:08:47.582Z,99682.53
2018-09-23T16:11:16.091Z,99673.11
2018-09-23T16:13:44.686Z,99675.82
2018-09-23T16:16:13.237Z,99691.94
2018-09-23T16:18:41.916Z,99716.89
2018-09-23T16:21:10.249Z,99712.95
2018-09-23T16:23:38.751Z,99700.97
2018-09-23T16:26:07.689Z,99721.38
2018-09-23T16:28:36.486Z,99747.28
2018-09-23T16:31:05.317Z,99765.96
2018-09-23T16:33:33.957Z,99792.31
2018-09-23T16:36:02.532Z,99817.87
2018-09-23T16:38:31.358Z,99832.91
2018-09-23T16:40:59.950Z,99839.31
2018-09-23T16:43:29.150Z,99833.78
2018-09-23T16:45:58.141Z,99822.84
2018-09-23T16:48:26.684Z,99818.23
2018-09-23T16:50:55.440Z,99844.66
2018-09-23T16:53:24.196Z,99879.47
2018-09-23T16:55:53.564Z,99855.31
2018-09-23T16:58:22.839Z,99862.17
2018-09-23T17:00:52.400Z,99873.24
2018-09-23T17:03:20.967Z,99874.98
2018-09-23T17:05:50.351Z,99869.43
2018-09-23T17:08:19.245Z,99907.73
2018-09-23T17:10:50.220Z,99913.75
2018-09-23T17:13:19.263Z,99900.73
2018-09-23T17:15:48.694Z,99900.13
2018-09-23T17:18:17.176Z,99917.08
2018-09-23T17:20:45.913Z,99930.80
2018-09-23T17:23:14.607Z,99946.09
2018-09-23T17:25:43.294Z,99944.07
2018-09-23T17:28:11.839Z,99964.58
2018-09-23T17:30:40.668Z,99973.09
2018-09-23T17:33:11.847Z,99973.34
2018-09-23T17:38:34.069Z,99987.33
2018-09-23T17:41:02.585Z,99986.59
2018-09-23T17:43:31.483Z,99981.02
2018-09-23T17:46:00.455Z,99989.66
2018-09-23T17:48:30.337Z,99986.68
2018-09-23T17:50:58.871Z,99985.78
2018-09-23T17:53:27.798Z,99996.77
2018-09-23T17:55:57.610Z,99991.34
2018-09-23T17:58:27.837Z,99993.78
2018-09-23T18:00:56.630Z,100002.63
2018-09-23T18:03:25.168Z,100007.56
2018-09-23T18:05:54.105Z,100012.54
2018-09-23T18:08:22.728Z,100021.92
2018-09-23T18:10:52.124Z,100046.98
2018-09-23T18:13:20.639Z,100056.69
2018-09-23T18:15:49.402Z,100063.56
2018-09-23T18:18:18.972Z,100069.88
2018-09-23T18:20:48.799Z,100070.11
2018-09-23T18:23:17.333Z,100078.95
2018-09-23T18:25:46.349Z,100075.06
2018-09-23T18:28:14.919Z,100080.63
2018-09-23T18:30:43.655Z,100079.36
2018-09-23T18:33:12.815Z,100084.44
2018-09-23T18:35:41.274Z,100094.30
2018-09-23T18:38:10.007Z,100108.75
2018-09-23T18:40:39.137Z,100118.97
2018-09-23T18:43:07.824Z,100130.75
2018-09-23T18:45:36.753Z,100140.20
2018-09-23T18:48:07.479Z,100151.16
2018-09-23T18:50:36.683Z,100160.98
2018-09-23T18:53:10.608Z,100168.12
2018-09-23T18:55:41.533Z,100172.39
2018-09-23T18:58:10.702Z,100183.88
2018-09-23T19:00:39.776Z,100191.09
2018-09-23T19:03:08.910Z,100200.45
2018-09-23T19:05:37.523Z,100208.41
2018-09-23T19:08:07.212Z,100206.74
2018-09-23T19:10:36.422Z,100211.41
2018-09-23T19:13:10.187Z,100207.14
2018-09-23T19:15:38.599Z,100210.09
2018-09-23T19:18:08.919Z,100211.79
2018-09-23T19:20:50.535Z,100216.44
2018-09-23T19:23:49.755Z,100222.05
2018-09-23T19:26:18.270Z,100230.92
2018-09-23T19:28:46.803Z,100239.04
2018-09-23T19:31:15.312Z,100246.19
2018-09-23T19:33:44.002Z,100249.75
2018-09-23T19:36:12.575Z,100242.87
2018-09-23T19:38:41.042Z,100244.14
2018-09-23T19:41:10.091Z,100244.97
2018-09-23T19:43:38.839Z,100250.92
2018-09-23T19:46:07.679Z,100263.28
2018-09-23T19:48:36.862Z,100267.51
2018-09-23T19:51:06.164Z,100270.49
2018-09-23T19:53:34.732Z,100288.81
2018-09-23T19:56:03.382Z,100293.96
2018-09-23T19:58:32.003Z,100296.47
2018-09-23T20:01:00.643Z,100305.02
2018-09-23T20:03:29.339Z,100316.06
2018-09-23T20:05:58.023Z,100325.49
2018-09-23T20:08:26.791Z,100331.87
2018-09-23T20:10:55.379Z,100333.98
2018-09-23T20:13:23.824Z,100342.07
2018-09-23T20:15:52.456Z,100350.56
2018-09-23T20:18:20.925Z,100350.50
2018-09-23T20:20:49.471Z,100344.55
2018-09-23T20:23:18.050Z,100356.94
2018-09-23T20:25:47.249Z,100369.31
2018-09-23T20:28:15.844Z,100382.09
2018-09-23T20:30:44.454Z,100391.06
2018-09-23T20:33:13.030Z,100390.67
2018-09-23T20:35:41.755Z,100400.44
2018-09-23T20:38:10.422Z,100402.15
2018-09-23T20:40:39.867Z,100405.98
2018-09-23T20:43:08.492Z,100415.30
2018-09-23T20:45:37.278Z,100411.08
2018-09-23T20:48:05.724Z,100416.14
2018-09-23T20:50:34.227Z,100425.52
2018-09-23T20:53:02.763Z,100429.78
2018-09-23T20:55:31.410Z,100425.08
2018-09-23T20:57:59.883Z,100429.38
2018-09-23T21:00:28.581Z,100442.53
2018-09-23T21:02:57.231Z,100453.13
2018-09-23T21:05:25.878Z,100472.67
2018-09-23T21:07:54.326Z,100481.64
2018-09-23T21:10:22.932Z,100473.98
2018-09-23T21:12:52.247Z,100482.48
2018-09-23T21:15:20.895Z,100480.33
2018-09-23T21:17:49.427Z,100484.11
2018-09-23T21:20:18.789Z,100487.10
2018-09-23T21:22:47.373Z,100494.75
2018-09-23T21:25:15.877Z,100493.43
2018-09-23T21:27:44.443Z,100503.64
2018-09-23T21:30:13.101Z,100512.16
2018-09-23T21:32:42.826Z,100512.56
2018-09-23T21:35:11.343Z,100522.42
2018-09-23T21:37:41.021Z,100527.09
2018-09-23T21:40:09.527Z,100545.35
2018-09-23T21:42:38.294Z,100554.27
2018-09-23T21:45:06.904Z,100555.98
2018-09-23T21:47:35.446Z,100554.67
2018-09-23T21:50:04.041Z,100557.62
2018-09-23T21:52:32.620Z,100566.13
2018-09-23T21:57:43.771Z,100579.76
2018-09-23T22:00:13.072Z,100581.03
2018-09-23T22:02:41.543Z,100585.30
2018-09-23T22:05:10.182Z,100592.56
2018-09-23T22:07:38.715Z,100590.84
2018-09-23T22:10:07.340Z,100598.06
2018-09-23T22:12:35.893Z,100602.73
2018-09-23T22:15:04.435Z,100599.78
2018-09-23T22:17:32.959Z,100603.61
2018-09-23T22:20:01.803Z,100613.81
2018-09-23T22:22:30.155Z,100603.17
2018-09-23T22:24:58.760Z,100602.29
2018-09-23T22:27:27.266Z,100609.98
2018-09-23T22:29:55.866Z,100614.62
2018-09-23T22:32:24.431Z,100625.73
2018-09-23T22:34:52.923Z,100623.22
2018-09-23T22:37:21.554Z,100626.17
2018-09-23T22:39:50.715Z,100627.49
2018-09-23T22:42:19.245Z,100639.41
2018-09-23T22:44:47.779Z,100645.82
2018-09-23T22:47:16.639Z,100654.75
2018-09-23T22:49:45.069Z,100654.78
2018-09-23T22:52:13.496Z,100664.15
2018-09-23T22:54:41.911Z,100668.38
2018-09-23T22:57:10.340Z,100668.38
2018-09-23T22:59:38.964Z,100667.54
2018-09-23T23:02:07.627Z,100678.62
2018-09-23T23:04:36.118Z,100677.77
2018-09-23T23:07:04.690Z,100678.61
2018-09-23T23:09:33.474Z,100687.54
2018-09-23T23:12:01.992Z,100690.53
2018-09-23T23:14:30.449Z,100697.34
2018-09-23T23:16:59.045Z,100704.16
2018-09-23T23:19:28.255Z,100712.21
2018-09-23T23:21:57.655Z,100719.02
2018-09-23T23:24:26.570Z,100731.80
2018-09-23T23:26:56.068Z,100730.95
2018-09-23T23:29:24.656Z,100730.95
2018-09-23T23:31:53.559Z,100737.35
2018-09-23T23:34:23.205Z,100739.06
2018-09-23T23:37:01.910Z,100739.50
2018-09-23T23:39:46.429Z,100746.73
2018-09-23T23:42:15.397Z,100751.80
2018-09-23T23:44:44.623Z,100756.91
2018-09-23T23:47:13.098Z,100755.64
2018-09-23T23:49:41.588Z,100766.70
2018-09-23T23:52:10.025Z,100776.48
2018-09-23T23:54:38.443Z,100779.05
2018-09-23T23:57:07.409Z,100791.34
2018-09-23T23:59:36.714Z,100790.52
